CYNR

METAR CYNR 170400Z AUTO 21004KT 9SM CLR M02/M04 A2929 RMK AO2 PRESFR SLP938
METAR
LOCATION
CYNR
DATE - TIME
170400Z
WIND
210 TRUE @ 4 KNOTS
VISIBILITY
9SM
RUNWAY VISUAL RANGE
NOT REPORTED
WEATHER
CLOUDINESS
CLR
TEMP / DEWPOINT
-2 ºC / -4 ºC
ALTIMETER
29.29 in. Hg
RECENT WEATHER
NOT REPORTED
WIND SHEAR
NOT REPORTED
REMARKS
RMK AO2 PRESFR SLP938
SEA LEVEL PRESSURE: hPa

CYNR

METAR CYNR 170300Z AUTO 23005KT 9SM CLR M00/M03 A2933 RMK AO2 PRESFR SLP950
METAR
LOCATION
CYNR
DATE - TIME
170300Z
WIND
230 TRUE @ 5 KNOTS
VISIBILITY
9SM
RUNWAY VISUAL RANGE
NOT REPORTED
WEATHER
CLOUDINESS
CLR
TEMP / DEWPOINT
-0 ºC / -3 ºC
ALTIMETER
29.33 in. Hg
RECENT WEATHER
NOT REPORTED
WIND SHEAR
NOT REPORTED
REMARKS
RMK AO2 PRESFR SLP950
SEA LEVEL PRESSURE: hPa

CYNR

METAR CYNR 170200Z AUTO 22005KT 9SM CLR 02/M02 A2936 RMK AO2 PRESFR SLP959
METAR
LOCATION
CYNR
DATE - TIME
170200Z
WIND
220 TRUE @ 5 KNOTS
VISIBILITY
9SM
RUNWAY VISUAL RANGE
NOT REPORTED
WEATHER
CLOUDINESS
CLR
TEMP / DEWPOINT
2 ºC / -2 ºC
ALTIMETER
29.36 in. Hg
RECENT WEATHER
NOT REPORTED
WIND SHEAR
NOT REPORTED
REMARKS
RMK AO2 PRESFR SLP959
SEA LEVEL PRESSURE: hPa

Your time UTC time
 
 
Weather data provided by AXYS Technologies Inc., www.axystechnologies.com
 
Station History